28 september 2022

Tijd Code Weer Temp. Zicht Plafond Wind METAR/SPECI
02:30
I
17 °C 3,6 km 1.600 ft 270° 270° 11 kt METAR LFBE 280030Z AUTO 27011KT 9999 3600 -RA FEW010 BKN016 OVC022 17/16 Q1009 TEMPO 29015G25KT 4000 SHRA BKN015 BKN025TCU
02:00
I
17 °C 10 km+ 900 ft 260° 260° 11 kt METAR LFBE 280000Z AUTO 26011KT 9999 BKN009/// OVC018/// ///TCU 17/16 Q1009 TEMPO 2000 DZ OVC005
01:30
I
16 °C 10 km+ 900 ft 260° 260° 12 kt METAR LFBE 272330Z AUTO 26012KT 9999 BKN009/// OVC014/// ///TCU 16/16 Q1010
01:00
I
16 °C 4,7 km 800 ft 260° 260° 9 kt METAR LFBE 272300Z AUTO 26009KT 4700 -RA BR BKN008/// OVC015/// ///TCU 16/16 Q1010
00:30
I
16 °C 5 km 800 ft 250° 250° 10 kt METAR LFBE 272230Z AUTO 25010KT 5000 -RA BR BKN008 OVC015 16/15 Q1010
00:00
I
15 °C 4,2 km 1.000 ft 240° 240° 13 kt METAR LFBE 272200Z AUTO 24013KT 4200 RA BR BKN010/// BKN015/// OVC022/// ///TCU 15/15 Q1010

27 september 2022

Tijd Code Weer Temp. Zicht Plafond Wind METAR/SPECI
23:30
M
15 °C 6 km 1.400 ft 230° 230° 13 kt METAR LFBE 272130Z AUTO 23013KT 200V260 6000 -RA OVC014 15/15 Q1011
23:00
M
15 °C 5 km 1.200 ft 250° 250° 10 kt METAR LFBE 272100Z AUTO 25010KT 200V270 5000 -RA BR BKN012 OVC017 15/14 Q1011
22:30
M
15 °C 6 km 2.400 ft 240° 240° 12 kt METAR LFBE 272030Z AUTO 24012KT 6000 -RA FEW015/// BKN024/// OVC029/// ///TCU 15/14 Q1011 TEMPO 2000 DZ OVC008
22:00
M
16 °C 10 km+ 2.900 ft 240° 240° 9 kt METAR LFBE 272000Z AUTO 24009KT 9999 -RA OVC029 16/14 Q1012 TEMPO 2000 DZ OVC008
21:30
V
16 °C 10 km+ 3.200 ft 250° 250° 11 kt METAR LFBE 271930Z AUTO 25011KT 9999 -RA FEW020 BKN032 OVC038 16/13 Q1012 TEMPO 2000 DZ OVC008
21:00
M
17 °C 10 km+ 2.900 ft 240° 240° 10 - 20 kt METAR LFBE 271900Z AUTO 24010G20KT 210V270 9999 BKN029/// OVC035/// ///TCU 17/12 Q1012 BECMG BKN015 OVC030
20:30
V
17 °C 10 km+ 3.900 ft 250° 250° 9 kt METAR LFBE 271830Z AUTO 25009KT 220V280 9999 BKN039 BKN054 OVC064 17/12 Q1012 NOSIG
20:00
V
17 °C 10 km+ 5.600 ft 260° 260° 7 kt METAR LFBE 271800Z AUTO 26007KT 9999 SCT036 OVC056 17/12 Q1012 NOSIG
19:30
V
17 °C 10 km+ 4.000 ft 270° 270° 9 kt METAR LFBE 271730Z AUTO 27009KT 9999 BKN040 OVC056 17/12 Q1012 NOSIG
19:00
V
17 °C 10 km+ 4.100 ft 270° 270° 12 kt METAR LFBE 271700Z AUTO 27012KT 9999 FEW035 BKN041 OVC047 17/11 Q1012 NOSIG
18:30
V
17 °C 10 km+ 5.400 ft 270° 270° 14 kt METAR LFBE 271630Z AUTO 27014KT 9999 SCT041 OVC054 17/11 Q1012 NOSIG
18:00
V
18 °C 10 km+ 6.400 ft 280° 280° 14 kt METAR LFBE 271600Z AUTO 28014KT 9999 FEW047 SCT054 OVC064 18/11 Q1012 NOSIG
17:30
V
18 °C 10 km+ - 280° 280° 7 kt METAR LFBE 271530Z AUTO 28007KT CAVOK 18/13 Q1012 NOSIG
17:00
V
17 °C 10 km+ 6.200 ft 280° 280° 8 kt METAR LFBE 271500Z AUTO 28008KT 9999 FEW032 BKN062 BKN072 17/14 Q1013 TEMPO BKN030TCU
16:30
V
16 °C 10 km+ 3.300 ft 270° 270° 7 kt METAR LFBE 271430Z AUTO 27007KT 9999 FEW026 BKN033 BKN041 16/14 Q1013 TEMPO BKN030TCU
16:00
I
16 °C 2 km 2.800 ft 280° 280° 10 kt METAR LFBE 271400Z AUTO 28010KT 250V320 9999 2000 RA FEW023 BKN028 BKN037 16/12 Q1013 TEMPO NSW BKN030TCU
15:30
V
16 °C 10 km+ 6.800 ft 230° 230° 7 kt METAR LFBE 271330Z AUTO 23007KT 200V260 9999 FEW041 SCT056 OVC068 16/14 Q1013 TEMPO BKN030TCU
15:00
M
14 °C 5 km 2.200 ft 270° 270° 8 kt METAR LFBE 271300Z AUTO 27008KT 230V310 5000 -RA BR FEW009 SCT016 BKN022 14/13 Q1013 TEMPO BKN030TCU
14:30
M
14 °C 8 km 2.700 ft 290° 290° 10 kt METAR LFBE 271230Z AUTO 29010KT 8000 -RA FEW020 BKN027 OVC034 14/12 Q1013 TEMPO BKN030TCU
14:00
V
16 °C 10 km+ 3.900 ft 280° 280° 10 kt METAR LFBE 271200Z AUTO 28010KT 9999 BKN039 OVC052 16/10 Q1013 TEMPO BKN030TCU
13:30
V
17 °C 10 km+ 3.400 ft 270° 270° 9 kt METAR LFBE 271130Z AUTO 27009KT 9999 BKN034 OVC049 17/10 Q1013 TEMPO BKN030TCU
13:00
V
16 °C 10 km+ 4.200 ft 270° 270° 10 kt METAR LFBE 271100Z AUTO 27010KT 9999 SCT035 BKN042 OVC058 16/10 Q1014 TEMPO BKN030TCU
12:30
V
17 °C 10 km+ 4.600 ft 270° 270° 7 kt METAR LFBE 271030Z AUTO 27007KT 220V300 9999 SCT030 BKN046 OVC056 17/10 Q1014 TEMPO BKN030TCU
12:00
V
16 °C 10 km+ 3.500 ft 260° 260° 7 kt METAR LFBE 271000Z AUTO 26007KT 220V310 9999 SCT026 BKN035 BKN042 16/10 Q1014 TEMPO BKN030TCU
11:30
V
16 °C 10 km+ 5.400 ft 300° 300° 6 kt METAR LFBE 270930Z AUTO 30006KT 240V340 9999 SCT025 BKN054 16/09 Q1014 TEMPO BKN030TCU
11:00
V
15 °C 10 km+ 5.600 ft 280° 280° 7 kt METAR LFBE 270900Z AUTO 28007KT 240V330 9999 FEW021 BKN056 15/10 Q1014 NOSIG
10:30
V
14 °C 10 km+ 5.200 ft 270° 270° 6 kt METAR LFBE 270830Z AUTO 27006KT 240V300 9999 FEW043 OVC052 14/10 Q1013 NOSIG
10:00
V
14 °C 10 km+ - 280° 280° 7 kt METAR LFBE 270800Z AUTO 28007KT CAVOK 14/11 Q1013 NOSIG
09:30
V
13 °C 10 km+ 5.400 ft 260° 260° 4 kt METAR LFBE 270730Z AUTO 26004KT 9999 FEW038 OVC054 13/10 Q1013 NOSIG
09:00
V
12 °C 10 km+ - 270° 270° 6 kt METAR LFBE 270700Z AUTO 27006KT CAVOK 12/11 Q1013 NOSIG
08:30
V
12 °C 10 km+ 6.000 ft 250° 250° 4 kt METAR LFBE 270630Z AUTO 25004KT 9999 SCT041 OVC060 12/10 Q1013 NOSIG
08:00
V
12 °C 10 km+ 5.600 ft 270° 270° 6 kt METAR LFBE 270600Z AUTO 27006KT 9999 FEW040 OVC056 12/11 Q1013 NOSIG
07:30
V
12 °C 10 km+ - 260° 260° 5 kt METAR LFBE 270530Z AUTO 26005KT CAVOK 12/11 Q1012 NOSIG
07:00
V
12 °C 10 km+ 5.600 ft 260° 260° 4 kt METAR LFBE 270500Z AUTO 26004KT 9999 SCT047 OVC056 12/11 Q1012 NOSIG
06:30
V
12 °C 10 km+ 5.400 ft 250° 250° 4 kt METAR LFBE 270430Z AUTO 25004KT 9999 FEW047 OVC054 12/11 Q1012 NOSIG
06:00
V
13 °C 10 km+ - 270° 270° 5 kt METAR LFBE 270400Z AUTO 27005KT CAVOK 13/12 Q1012 NOSIG
05:30
V
13 °C 10 km+ - 290° 290° 4 kt METAR LFBE 270330Z AUTO 29004KT CAVOK 13/12 Q1011 NOSIG
05:00
V
12 °C 10 km+ - 290° 290° 5 kt METAR LFBE 270300Z AUTO 29005KT CAVOK 12/12 Q1011 NOSIG
04:30
V
13 °C 10 km+ - 280° 280° 5 kt METAR LFBE 270230Z AUTO 28005KT CAVOK 13/12 Q1011 NOSIG
04:00
V
13 °C 10 km+ 5.600 ft 270° 270° 5 kt METAR LFBE 270200Z AUTO 27005KT 9999 FEW046 BKN056 BKN240 13/12 Q1011 NOSIG
03:30
V
13 °C 10 km+ - 260° 260° 6 kt METAR LFBE 270130Z AUTO 26006KT CAVOK 13/13 Q1011 NOSIG
03:00
V
13 °C 10 km+ 5.800 ft 270° 270° 6 kt METAR LFBE 270100Z AUTO 27006KT 9999 FEW045 BKN058 13/13 Q1011 NOSIG
02:30
V
14 °C 10 km+ 4.700 ft 270° 270° 7 kt METAR LFBE 270030Z AUTO 27007KT 9999 BKN047 OVC060 14/13 Q1011 NOSIG
02:00
V
14 °C 10 km+ 4.500 ft 290° 290° 6 kt METAR LFBE 270000Z AUTO 29006KT 9999 SCT008 SCT020 BKN045 14/13 Q1011 NOSIG
01:30
V
14 °C 10 km+ 4.400 ft 270° 270° 7 kt METAR LFBE 262330Z AUTO 27007KT 9999 FEW007 SCT011 BKN044 14/13 Q1010
01:00
I
14 °C 10 km+ 800 ft 260° 260° 9 kt METAR LFBE 262300Z AUTO 26009KT 9999 BKN008 OVC012 14/13 Q1010
00:30
M
14 °C 10 km+ 1.400 ft 260° 260° 8 kt METAR LFBE 262230Z AUTO 26008KT 9999 FEW008 BKN014 BKN050 14/13 Q1010
00:00
M
14 °C 10 km+ 1.400 ft 260° 260° 7 kt METAR LFBE 262200Z AUTO 26007KT 200V310 9999 -RA BKN014 OVC020 14/14 Q1010

26 september 2022

Tijd Code Weer Temp. Zicht Plafond Wind METAR/SPECI
23:30
M
14 °C 5 km 2.400 ft 240° 240° 11 kt METAR LFBE 262130Z AUTO 24011KT 5000 -RA BR FEW010 BKN024 BKN029 14/13 Q1010
23:00
I
14 °C 4,4 km 2.200 ft 250° 250° 11 kt METAR LFBE 262100Z AUTO 25011KT 4400 RA BR FEW009 SCT013 BKN022 14/13 Q1011
22:30
M
15 °C 8 km 2.700 ft 240° 240° 9 kt METAR LFBE 262030Z AUTO 24009KT 200V260 8000 DZ BKN027 BKN036 BKN044 15/12 Q1010
22:00
V
15 °C 10 km+ 3.600 ft 240° 240° 11 kt METAR LFBE 262000Z AUTO 24011KT 9999 -RA FEW029/// OVC036/// //////TCU 15/12 Q1010 TEMPO 24015G25KT 4000 RA BKN010
21:30
V
16 °C 10 km+ 5.200 ft 230° 230° 12 kt METAR LFBE 261930Z AUTO 23012KT 9999 -RA FEW032/// SCT044/// OVC052/// //////TCU 16/11 Q1011 TEMPO 24015G25KT 4000 RA BKN010
21:00
V
17 °C 10 km+ 5.600 ft 230° 230° 11 kt METAR LFBE 261900Z AUTO 23011KT 200V260 9999 FEW047/// OVC056/// //////TCU 17/10 Q1011 TEMPO 24015G25KT 4000 RA BKN010
20:30
V
17 °C 10 km+ 4.200 ft 260° 260° 14 kt METAR LFBE 261830Z AUTO 26014KT 9999 OVC042 17/10 Q1011 TEMPO 24015G25KT 4000 RA BKN010
20:00
V
18 °C 10 km+ 4.700 ft 250° 250° 14 kt METAR LFBE 261800Z AUTO 25014KT 210V270 9999 BKN047 OVC054 18/09 Q1011 NOSIG
19:30
V
18 °C 10 km+ - 260° 260° 15 kt METAR LFBE 261730Z AUTO 26015KT CAVOK 18/08 Q1011 NOSIG
19:00
V
19 °C 10 km+ - 270° 270° 14 kt METAR LFBE 261700Z AUTO 27014KT CAVOK 19/08 Q1011 NOSIG
18:30
V
20 °C 10 km+ - 270° 270° 17 kt METAR LFBE 261630Z AUTO 27017KT CAVOK 20/08 Q1011 NOSIG
18:00
V
20 °C 10 km+ - 270° 270° 16 kt METAR LFBE 261600Z AUTO 27016KT CAVOK 20/08 Q1011 NOSIG
17:30
V
20 °C 10 km+ - 270° 270° 12 kt METAR LFBE 261530Z AUTO 27012KT CAVOK 20/08 Q1011 NOSIG
17:00
V
21 °C 10 km+ - 260° 260° 16 kt METAR LFBE 261500Z AUTO 26016KT CAVOK 21/08 Q1012 NOSIG
16:30
V
20 °C 10 km+ - 280° 280° 16 kt METAR LFBE 261430Z AUTO 28016KT CAVOK 20/09 Q1012 NOSIG
16:00
V
20 °C 10 km+ - 260° 260° 12 kt METAR LFBE 261400Z AUTO 26012KT 210V320 CAVOK 20/09 Q1012 NOSIG
15:30
V
20 °C 10 km+ - 270° 270° 13 kt METAR LFBE 261330Z AUTO 27013KT 240V300 CAVOK 20/09 Q1012 NOSIG
15:00
V
20 °C 10 km+ - 260° 260° 12 kt METAR LFBE 261300Z AUTO 26012KT CAVOK 20/09 Q1013 NOSIG
14:30
V
19 °C 10 km+ 4.500 ft 260° 260° 10 kt METAR LFBE 261230Z AUTO 26010KT 230V300 9999 BKN045 BKN052 BKN070 19/09 Q1013 NOSIG
14:00
V
20 °C 10 km+ 7.400 ft 240° 240° 8 kt METAR LFBE 261200Z AUTO 24008KT 190V280 9999 SCT044 SCT058 BKN074 20/10 Q1013 NOSIG
13:30
V
19 °C 10 km+ 5.800 ft 260° 260° 6 kt METAR LFBE 261130Z AUTO 26006KT 230V300 9999 FEW037 SCT046 BKN058 19/10 Q1014 NOSIG
13:00
V
18 °C 10 km+ 3.900 ft Var Var 3 kt METAR LFBE 261100Z AUTO VRB03KT 9999 SCT031 BKN039 BKN140 18/11 Q1014 TEMPO BKN020TCU
12:30
V
17 °C 10 km+ - 280° 280° 3 kt METAR LFBE 261030Z AUTO 28003KT 190V350 CAVOK 17/13 Q1014 TEMPO BKN020TCU
12:00
V
15 °C 10 km+ - Var Var 2 kt METAR LFBE 261000Z AUTO VRB02KT CAVOK 15/15 Q1015 TEMPO BKN020TCU
11:30
V
13 °C 10 km+ 16.000 ft Var Var 1 kt METAR LFBE 260930Z AUTO VRB01KT 9999 SCT002 BKN160 13/13 Q1015 TEMPO BKN020TCU
11:00
L
12 °C 1,4 km - Var Var 1 kt METAR LFBE 260900Z AUTO VRB01KT 1400 R27/1500U BR VV/// 12/12 Q1015 BECMG 7000 NSW SCT015
10:30
L
10 °C 550 m - Var Var 2 kt METAR LFBE 260830Z AUTO VRB02KT 0550 R27/0800N FG VV/// 10/10 Q1015 BECMG 7000 NSW SCT015
10:00
L
10 °C 300 m - Var Var 1 kt METAR LFBE 260800Z AUTO VRB01KT 0300 R27/0400N FG VV/// 10/10 Q1015 BECMG 7000 NSW SCT015
09:30
L
9 °C 250 m - Var Var 2 kt METAR LFBE 260730Z AUTO VRB02KT 0250 R27/0275N FG VV/// 09/09 Q1015 BECMG 7000 NSW SCT015
09:00
L
9 °C 250 m - Var Var 2 kt METAR LFBE 260700Z AUTO VRB02KT 0250 R27/0325N FG VV/// 09/09 Q1015 BECMG 7000 NSW SCT015
08:30
L
8 °C 250 m - Var Var 1 kt METAR LFBE 260630Z AUTO VRB01KT 0250 R27/0275N FG VV/// 08/08 Q1015 BECMG 7000 NSW SCT015
08:00
L
8 °C 300 m - Var 000° 0 kt METAR LFBE 260600Z AUTO 00000KT 0300 R27/0325N FG VV/// 08/08 Q1015 NOSIG
07:30
L
8 °C 300 m - Var 000° 0 kt METAR LFBE 260530Z AUTO 00000KT 0300 R27/0325N FG VV/// 08/08 Q1015 NOSIG
07:00
L
8 °C 300 m - Var Var 1 kt METAR LFBE 260500Z AUTO VRB01KT 0300 R27/0375N FG VV/// 08/08 Q1015 NOSIG
06:30
L
8 °C 250 m - 150° 150° 1 kt METAR LFBE 260430Z AUTO 15001KT 0250 R27/0325N FG VV/// 08/08 Q1015 NOSIG
06:00
L
8 °C 300 m - Var 000° 0 kt METAR LFBE 260400Z AUTO 00000KT 0300 R27/0350N FG VV/// 08/08 Q1015 NOSIG
05:30
L
7 °C 300 m - Var 000° 0 kt METAR LFBE 260330Z AUTO 00000KT 0300 R27/0350N FG VV/// 07/07 Q1015 NOSIG
05:00
L
7 °C 550 m - Var 000° 0 kt METAR LFBE 260300Z AUTO 00000KT 0550 R27/0700N FG VV/// 07/07 Q1015 TEMPO 0300 FG
04:30
L
7 °C 500 m - 050° 050° 2 kt METAR LFBE 260230Z AUTO 05002KT 0500 R27/0650N FG VV/// 07/07 Q1015 TEMPO 0300 FG
04:00
L
7 °C 450 m - Var Var 2 kt METAR LFBE 260200Z AUTO VRB02KT 0450 R27/1100U FG VV/// 07/07 Q1015 TEMPO 0300 FG
03:30
L
7 °C 400 m - Var 000° 0 kt METAR LFBE 260130Z AUTO 00000KT 0450 0400 R27/0450D FG VV/// 07/07 Q1016 TEMPO 0300 FG
03:00
L
7 °C 700 m - 190° 190° 2 kt METAR LFBE 260100Z AUTO 19002KT 0800 0700 R27/1100D FG VV/// 07/07 Q1016 TEMPO 0300 FG NSC
02:30
I
7 °C 1,9 km - Var Var 2 kt METAR LFBE 260030Z AUTO VRB02KT 1900 BR FEW001 07/07 Q1016 TEMPO 0300 FG VV///
02:00
V
7 °C 10 km+ - 020° 020° 3 kt METAR LFBE 260000Z AUTO 02003KT CAVOK 07/07 Q1016 TEMPO 1500 MIFG
01:30
V
8 °C 10 km+ - 170° 170° 2 kt METAR LFBE 252330Z AUTO 17002KT CAVOK 08/08 Q1016 TEMPO 1500 MIFG
01:00
L
8 °C 700 m - 060° 060° 2 kt METAR LFBE 252300Z AUTO 06002KT 9000 0700 R27/1600D BCFG NSC 08/08 Q1016
00:30
V
8 °C 10 km+ - 080° 080° 2 kt METAR LFBE 252230Z AUTO 08002KT CAVOK 08/08 Q1017
00:00
V
8 °C 10 km+ - Var 000° 0 kt METAR LFBE 252200Z AUTO 00000KT CAVOK 08/08 Q1017

25 september 2022

Tijd Code Weer Temp. Zicht Plafond Wind METAR/SPECI
23:30
V
9 °C 10 km+ - Var 000° 0 kt METAR LFBE 252130Z AUTO 00000KT CAVOK 09/08 Q1017
23:00
V
9 °C 10 km+ - 230° 230° 1 kt METAR LFBE 252100Z AUTO 23001KT CAVOK 09/09 Q1017
22:30
V
10 °C 10 km+ - 220° 220° 2 kt METAR LFBE 252030Z AUTO 22002KT CAVOK 10/09 Q1017 NOSIG
22:00
V
11 °C 10 km+ - Var 000° 0 kt METAR LFBE 252000Z AUTO 00000KT CAVOK 11/10 Q1017 NOSIG
21:30
V
11 °C 10 km+ - 060° 060° 2 kt METAR LFBE 251930Z AUTO 06002KT CAVOK 11/10 Q1016 NOSIG
21:00
V
12 °C 10 km+ - 090° 090° 1 kt METAR LFBE 251900Z AUTO 09001KT CAVOK 12/10 Q1016 NOSIG
20:30
V
14 °C 10 km+ - 160° 160° 1 kt METAR LFBE 251830Z AUTO 16001KT CAVOK 14/10 Q1016 NOSIG
20:00
V
16 °C 10 km+ - 030° 030° 3 kt METAR LFBE 251800Z AUTO 03003KT CAVOK 16/10 Q1015 NOSIG
19:30
V
17 °C 10 km+ - 040° 040° 3 kt METAR LFBE 251730Z AUTO 04003KT CAVOK 17/10 Q1015 NOSIG
19:00
V
18 °C 10 km+ - 050° 050° 4 kt METAR LFBE 251700Z AUTO 05004KT CAVOK 18/11 Q1015 NOSIG
18:30
V
19 °C 10 km+ - 050° 050° 5 kt METAR LFBE 251630Z AUTO 05005KT 020V090 9999 SCT042 SCT050 19/11 Q1015 NOSIG
18:00
V
19 °C 10 km+ - 020° 020° 5 kt METAR LFBE 251600Z AUTO 02005KT 350V050 9999 FEW040 SCT082 19/10 Q1015 NOSIG
17:30
V
20 °C 10 km+ 6.600 ft 300° 300° 5 kt METAR LFBE 251530Z AUTO 30005KT 240V030 9999 SCT046 SCT052 BKN066 20/10 Q1015 NOSIG
17:00
V
19 °C 10 km+ - 260° 260° 2 kt METAR LFBE 251500Z AUTO 26002KT CAVOK 19/10 Q1015 NOSIG
Oudere gegevens

Met cookies volgen wij en derde partijen jouw internetgedrag binnen onze site. Als je verdergaat gaan we ervan uit dat je dit goedvindt. Meer info